Time;durP1;ratioP1;P1;durP2;ratioP2;P2;SDS_P1;SDS_P2;PMS_P1;PMS_P2;Temp;Humidity;BMP_temperature;BMP_pressure;BME280_temperature;BME280_humidity;BME280_pressure;Samples;Min_cycle;Max_cycle;Signal;HPM_P1;HPM_P2
2022/06/25 00:02:21;;;;;;;0.60;0.10;;;19.50;1.00;;;;;;5047449;28;20483;-68
2022/06/25 00:07:36;;;;;;;1.27;1.17;;;19.70;1.00;;;;;;5034428;28;20453;-67
2022/06/25 00:10:04;;;;;;;0.60;0.10;;;19.40;1.00;;;;;;5034907;28;20473;-67
2022/06/25 00:12:31;;;;;;;0.60;0.10;;;19.30;1.00;;;;;;5035014;28;20443;-66
2022/06/25 00:14:59;;;;;;;0.60;0.10;;;19.30;1.00;;;;;;5034880;28;20440;-66
2022/06/25 00:17:27;;;;;;;0.60;0.20;;;19.20;1.00;;;;;;5034145;28;20971;-66
2022/06/25 00:19:57;;;;;;;0.60;0.10;;;19.30;1.00;;;;;;5035055;28;20463;-65
2022/06/25 00:22:25;;;;;;;0.60;0.10;;;19.20;1.00;;;;;;5034993;28;20846;-66
2022/06/25 00:24:54;;;;;;;0.60;0.10;;;19.20;1.00;;;;;;5046496;28;20458;-68
2022/06/25 00:27:21;;;;;;;0.60;0.20;;;19.20;1.00;;;;;;5048237;28;20808;-65
2022/06/25 00:29:49;;;;;;;1.80;1.70;;;19.20;1.00;;;;;;5034579;28;20478;-67
2022/06/25 00:32:18;;;;;;;0.80;0.47;;;19.10;1.00;;;;;;5042225;28;20976;-68
2022/06/25 00:34:46;;;;;;;0.60;0.20;;;18.90;1.00;;;;;;5054676;28;20442;-67
2022/06/25 00:37:16;;;;;;;1.33;1.20;;;18.80;1.00;;;;;;5041334;28;20470;-67
2022/06/25 00:39:44;;;;;;;2.00;1.03;;;18.70;1.00;;;;;;5035616;28;20463;-68
2022/06/25 00:42:14;;;;;;;0.60;0.10;;;18.70;1.00;;;;;;5035691;28;20819;-67
2022/06/25 00:44:42;;;;;;;1.47;0.87;;;18.80;1.00;;;;;;5033963;28;20798;-67
2022/06/25 00:47:11;;;;;;;0.60;0.27;;;18.60;1.00;;;;;;5034185;28;20480;-68
2022/06/25 00:49:40;;;;;;;4.30;2.13;;;18.80;1.00;;;;;;5048982;28;20470;-67
2022/06/25 00:52:11;;;;;;;0.60;0.10;;;18.80;1.00;;;;;;5034956;28;20447;-67
2022/06/25 00:54:45;;;;;;;0.60;0.20;;;18.90;1.00;;;;;;5034092;28;20809;-67
2022/06/25 00:57:18;;;;;;;1.83;1.13;;;18.90;1.00;;;;;;5034101;28;20893;-66
2022/06/25 00:59:49;;;;;;;0.73;0.17;;;18.90;1.00;;;;;;5049592;28;20485;-68
2022/06/25 01:02:20;;;;;;;0.70;0.30;;;18.80;1.00;;;;;;5052410;28;20481;-67
2022/06/25 01:04:48;;;;;;;0.63;0.20;;;18.70;1.00;;;;;;5034815;28;20474;-67
2022/06/25 01:07:17;;;;;;;0.60;0.20;;;18.60;1.00;;;;;;5033632;28;20459;-68
2022/06/25 01:09:48;;;;;;;0.60;0.20;;;18.60;1.00;;;;;;5048974;28;20477;-68
2022/06/25 01:12:16;;;;;;;0.60;0.20;;;18.50;1.00;;;;;;5052135;28;20941;-67
2022/06/25 01:14:44;;;;;;;0.60;0.20;;;18.60;1.00;;;;;;5040030;28;20489;-67
2022/06/25 01:17:12;;;;;;;0.70;0.40;;;18.50;1.00;;;;;;5032921;28;20455;-68
2022/06/25 01:19:40;;;;;;;1.33;0.60;;;18.50;1.00;;;;;;5033283;28;20467;-68
2022/06/25 01:22:09;;;;;;;2.20;0.70;;;18.40;1.00;;;;;;5038195;28;20485;-67
2022/06/25 01:24:37;;;;;;;0.80;0.40;;;18.30;1.00;;;;;;5053415;28;20449;-67
2022/06/25 01:27:13;;;;;;;0.93;0.43;;;18.30;1.00;;;;;;5044963;28;20458;-68
2022/06/25 01:29:42;;;;;;;0.60;0.10;;;18.20;1.00;;;;;;5036350;28;20462;-67
2022/06/25 01:32:10;;;;;;;1.10;0.60;;;18.20;1.00;;;;;;5048567;28;20932;-67
2022/06/25 01:34:38;;;;;;;0.60;0.10;;;18.00;1.00;;;;;;5051066;28;20500;-68
2022/06/25 01:37:06;;;;;;;0.60;0.27;;;18.10;1.00;;;;;;5033261;28;20816;-68
2022/06/25 01:39:35;;;;;;;0.70;0.47;;;18.10;1.00;;;;;;5033392;28;20869;-67
2022/06/25 01:42:04;;;;;;;0.60;0.10;;;18.20;1.00;;;;;;5032153;28;20447;-68
2022/06/25 01:44:36;;;;;;;0.60;0.30;;;18.20;1.00;;;;;;5037381;28;20450;-68
2022/06/25 01:47:05;;;;;;;0.60;0.10;;;18.10;1.00;;;;;;5052163;28;20454;-68
2022/06/25 01:49:33;;;;;;;1.33;0.83;;;18.10;1.00;;;;;;5042507;28;20523;-68
2022/06/25 01:52:01;;;;;;;0.60;0.10;;;18.10;1.00;;;;;;5036010;28;20450;-67
2022/06/25 01:54:29;;;;;;;0.60;0.20;;;18.10;1.00;;;;;;5052511;28;20952;-67
2022/06/25 01:56:58;;;;;;;0.60;0.20;;;18.10;1.00;;;;;;5040321;28;20467;-67
2022/06/25 01:59:26;;;;;;;1.07;0.50;;;18.10;1.00;;;;;;5032464;28;20466;-67
2022/06/25 02:01:54;;;;;;;0.93;0.47;;;18.10;1.00;;;;;;5040054;28;20453;-66
2022/06/25 02:04:22;;;;;;;0.60;0.20;;;18.10;1.00;;;;;;5031599;28;20487;-68
2022/06/25 02:06:50;;;;;;;0.80;0.70;;;18.00;1.00;;;;;;5032644;28;20671;-67
2022/06/25 02:09:18;;;;;;;0.60;0.27;;;18.00;1.00;;;;;;5033063;28;20818;-67
2022/06/25 02:11:46;;;;;;;0.70;0.40;;;18.00;1.00;;;;;;5033776;28;20446;-67
2022/06/25 02:14:15;;;;;;;1.20;0.80;;;18.00;1.00;;;;;;5032626;28;20440;-67
2022/06/25 02:16:43;;;;;;;0.60;0.20;;;18.00;1.00;;;;;;5041264;28;20451;-67
2022/06/25 02:19:11;;;;;;;0.60;0.20;;;18.00;1.00;;;;;;5032509;28;20458;-66
2022/06/25 02:21:38;;;;;;;0.60;0.20;;;18.00;1.00;;;;;;5032910;28;20498;-68
2022/06/25 02:24:06;;;;;;;0.60;0.20;;;18.00;1.00;;;;;;5032391;28;20755;-66
2022/06/25 02:26:34;;;;;;;0.90;0.60;;;18.00;1.00;;;;;;5032025;28;20460;-66
2022/06/25 02:29:02;;;;;;;0.60;0.20;;;18.00;1.00;;;;;;5038669;28;20454;-67
2022/06/25 02:31:32;;;;;;;2.77;2.47;;;18.00;1.00;;;;;;5050729;28;20490;-67
2022/06/25 02:34:00;;;;;;;2.27;1.07;;;18.00;1.00;;;;;;5052543;28;20448;-67
2022/06/25 02:36:28;;;;;;;0.70;0.30;;;18.00;1.00;;;;;;5050290;28;20446;-68
2022/06/25 02:38:55;;;;;;;0.70;0.50;;;17.90;1.00;;;;;;5035169;28;20452;-67
2022/06/25 02:41:23;;;;;;;0.90;0.67;;;17.80;1.00;;;;;;5032508;28;20570;-68
2022/06/25 02:43:51;;;;;;;0.60;0.30;;;17.80;1.00;;;;;;5033149;28;20479;-68
2022/06/25 02:46:19;;;;;;;0.60;0.10;;;17.90;1.00;;;;;;5041948;28;20480;-68
2022/06/25 02:48:48;;;;;;;1.30;1.03;;;18.00;1.00;;;;;;5051608;28;20884;-67
2022/06/25 02:51:16;;;;;;;0.93;0.40;;;18.00;1.00;;;;;;5051505;28;20470;-67
2022/06/25 02:53:44;;;;;;;0.90;0.63;;;18.00;1.00;;;;;;5033211;28;20857;-68
2022/06/25 02:58:58;;;;;;;1.47;1.37;;;18.00;1.00;;;;;;5012327;28;20818;-67
2022/06/25 03:01:27;;;;;;;0.70;0.47;;;18.00;1.00;;;;;;5012100;28;20530;-68
2022/06/25 03:03:58;;;;;;;0.70;0.20;;;17.90;1.00;;;;;;5013797;28;20475;-66
2022/06/25 03:06:26;;;;;;;0.60;0.30;;;17.90;1.00;;;;;;5031613;28;20447;-67
2022/06/25 03:08:54;;;;;;;0.60;0.10;;;17.90;1.00;;;;;;5032052;28;20459;-66
2022/06/25 03:11:21;;;;;;;0.60;0.10;;;18.00;1.00;;;;;;5032046;28;20475;-66
2022/06/25 03:13:49;;;;;;;0.70;0.33;;;18.10;1.00;;;;;;5050752;28;20439;-66
2022/06/25 03:16:18;;;;;;;1.53;1.43;;;18.10;1.00;;;;;;5049445;28;20564;-66
2022/06/25 03:18:46;;;;;;;0.60;0.10;;;18.10;1.00;;;;;;5051550;28;20450;-66
2022/06/25 03:21:15;;;;;;;0.60;0.10;;;18.20;1.00;;;;;;5052814;28;20458;-67
2022/06/25 03:23:43;;;;;;;0.60;0.10;;;18.20;1.00;;;;;;5033413;28;20470;-67
2022/06/25 03:26:11;;;;;;;0.60;0.10;;;18.30;1.00;;;;;;5030973;28;20448;-67
2022/06/25 03:28:38;;;;;;;0.60;0.10;;;18.30;1.00;;;;;;5027702;28;20458;-67
2022/06/25 03:31:06;;;;;;;0.60;0.10;;;18.40;1.00;;;;;;5031267;28;20489;-66
2022/06/25 03:33:34;;;;;;;0.80;0.47;;;18.40;1.00;;;;;;5033651;28;20606;-66
2022/06/25 03:36:02;;;;;;;0.60;0.10;;;18.50;1.00;;;;;;5030725;28;20443;-66
2022/06/25 03:38:31;;;;;;;0.60;0.10;;;18.50;1.00;;;;;;5042402;28;20450;-66
2022/06/25 03:43:41;;;;;;;0.60;0.33;;;18.50;1.00;;;;;;5037146;28;20478;-67
2022/06/25 03:46:09;;;;;;;0.60;0.20;;;18.50;1.00;;;;;;5037148;28;20481;-67
2022/06/25 03:48:37;;;;;;;0.60;0.10;;;18.60;1.00;;;;;;5037891;28;20470;-68
2022/06/25 03:51:05;;;;;;;0.60;0.20;;;18.70;1.00;;;;;;5035532;28;20463;-67
2022/06/25 03:53:34;;;;;;;0.60;0.10;;;18.70;1.00;;;;;;5051802;28;20453;-67
2022/06/25 03:56:02;;;;;;;0.60;0.20;;;18.90;1.00;;;;;;5054930;28;20952;-67
2022/06/25 03:58:30;;;;;;;0.60;0.13;;;19.00;1.00;;;;;;5039424;28;20977;-67
2022/06/25 04:00:58;;;;;;;0.60;0.10;;;19.20;1.00;;;;;;5035753;28;20475;-67
2022/06/25 04:03:26;;;;;;;0.60;0.10;;;19.20;1.00;;;;;;5049264;28;20986;-68
2022/06/25 04:05:54;;;;;;;0.60;0.20;;;19.50;1.00;;;;;;5036111;28;20458;-67
2022/06/25 04:08:21;;;;;;;0.60;0.20;;;19.70;1.00;;;;;;5036524;28;20456;-66
2022/06/25 04:10:51;;;;;;;0.60;0.10;;;19.50;1.00;;;;;;5031239;28;20546;-67
2022/06/25 04:13:18;;;;;;;0.60;0.10;;;19.60;1.00;;;;;;5036114;28;20447;-67
2022/06/25 04:15:46;;;;;;;0.60;0.20;;;19.60;1.00;;;;;;5034945;28;20481;-67
2022/06/25 04:18:14;;;;;;;0.60;0.10;;;19.70;1.00;;;;;;5040733;28;20894;-66
2022/06/25 04:20:42;;;;;;;0.60;0.10;;;19.80;1.00;;;;;;5035300;28;20469;-66
2022/06/25 04:23:10;;;;;;;0.60;0.10;;;19.80;1.00;;;;;;5043125;28;20449;-66
2022/06/25 04:25:38;;;;;;;0.60;0.13;;;19.90;1.00;;;;;;5038535;28;20525;-67
2022/06/25 04:30:53;;;;;;;0.70;0.30;;;20.30;1.00;;;;;;5034664;28;20460;-66
2022/06/25 04:33:21;;;;;;;0.60;0.10;;;20.30;1.00;;;;;;5035105;28;20958;-67
2022/06/25 04:35:49;;;;;;;0.60;0.20;;;20.20;1.00;;;;;;5034539;28;20918;-66
2022/06/25 04:38:17;;;;;;;0.60;0.10;;;20.30;1.00;;;;;;5038544;28;20454;-66
2022/06/25 04:40:45;;;;;;;0.60;0.10;;;20.40;1.00;;;;;;5034610;28;20841;-68
2022/06/25 04:43:14;;;;;;;0.60;0.10;;;20.40;1.00;;;;;;5035772;28;20450;-67
2022/06/25 04:45:42;;;;;;;0.70;0.20;;;20.30;1.00;;;;;;5034106;28;20475;-67
2022/06/25 04:48:10;;;;;;;0.60;0.10;;;19.90;1.00;;;;;;5035496;28;20447;-67
2022/06/25 04:50:43;;;;;;;0.70;0.30;;;19.70;1.00;;;;;;5040414;28;20530;-67
2022/06/25 04:53:11;;;;;;;0.60;0.10;;;19.50;1.00;;;;;;5052732;28;20458;-67
2022/06/25 04:55:39;;;;;;;0.60;0.10;;;19.50;1.00;;;;;;5053922;28;20447;-67
2022/06/25 04:58:07;;;;;;;0.60;0.10;;;19.60;1.00;;;;;;5042578;28;21025;-67
2022/06/25 05:00:36;;;;;;;0.60;0.10;;;19.70;1.00;;;;;;5033921;28;20494;-67
2022/06/25 05:03:08;;;;;;;0.60;0.10;;;19.70;1.00;;;;;;5037218;28;20815;-68
2022/06/25 05:05:36;;;;;;;0.60;0.10;;;19.70;1.00;;;;;;5054274;28;20568;-67
2022/06/25 05:08:04;;;;;;;0.60;0.13;;;19.80;1.00;;;;;;5043201;28;20452;-67
2022/06/25 05:10:33;;;;;;;0.60;0.10;;;20.10;1.00;;;;;;5034456;28;20826;-66
2022/06/25 05:13:13;;;;;;;0.60;0.10;;;20.20;1.00;;;;;;5033887;28;20458;-66
2022/06/25 05:15:43;;;;;;;0.60;0.10;;;20.40;1.00;;;;;;5033794;28;20439;-66
2022/06/25 05:18:13;;;;;;;0.60;0.10;;;20.50;1.00;;;;;;5046106;28;20451;-68
2022/06/25 05:20:42;;;;;;;0.60;0.10;;;20.50;1.00;;;;;;5036398;28;20474;-67
2022/06/25 05:23:11;;;;;;;0.60;0.10;;;20.50;1.00;;;;;;5035278;28;20455;-67
2022/06/25 05:25:40;;;;;;;0.60;0.10;;;20.40;1.00;;;;;;5033470;28;20467;-66
2022/06/25 05:28:08;;;;;;;0.60;0.20;;;20.40;1.00;;;;;;5033704;28;20447;-66
2022/06/25 05:30:37;;;;;;;0.60;0.20;;;20.40;1.00;;;;;;5033867;28;20483;-66
2022/06/25 05:33:06;;;;;;;0.60;0.10;;;20.50;1.00;;;;;;5037805;28;20479;-65
2022/06/25 05:35:34;;;;;;;0.80;0.30;;;20.60;1.00;;;;;;5042213;28;20439;-67
2022/06/25 05:38:06;;;;;;;0.60;0.20;;;20.40;1.00;;;;;;5039340;28;20451;-66
2022/06/25 05:40:34;;;;;;;0.60;0.20;;;20.20;1.00;;;;;;5052803;28;20481;-67
2022/06/25 05:43:02;;;;;;;0.60;0.13;;;20.20;1.00;;;;;;5052314;28;20525;-68
2022/06/25 05:45:30;;;;;;;0.60;0.10;;;20.30;1.00;;;;;;5053074;28;20478;-66
2022/06/25 05:47:59;;;;;;;0.60;0.10;;;20.40;1.00;;;;;;5045159;28;20454;-66
2022/06/25 05:50:28;;;;;;;0.70;0.20;;;20.50;1.00;;;;;;5041199;28;20479;-67
2022/06/25 05:52:56;;;;;;;0.60;0.10;;;20.50;1.00;;;;;;5033764;28;20934;-66
2022/06/25 05:55:24;;;;;;;0.60;0.20;;;20.40;1.00;;;;;;5033021;28;20436;-66
2022/06/25 05:57:53;;;;;;;0.80;0.37;;;20.10;1.00;;;;;;5032497;28;20810;-66
2022/06/25 06:00:21;;;;;;;0.60;0.20;;;19.90;1.00;;;;;;5032678;28;20472;-67
2022/06/25 06:02:50;;;;;;;0.60;0.10;;;19.90;1.00;;;;;;5032807;28;20538;-67
2022/06/25 06:05:18;;;;;;;0.60;0.10;;;20.00;1.00;;;;;;5031868;28;20482;-66
2022/06/25 06:07:47;;;;;;;0.60;0.10;;;20.10;1.00;;;;;;5032188;28;20478;-67
2022/06/25 06:10:16;;;;;;;0.70;0.63;;;20.20;1.00;;;;;;5032599;28;20491;-67
2022/06/25 06:12:45;;;;;;;0.60;0.10;;;20.10;1.00;;;;;;5034046;28;20449;-66
2022/06/25 06:15:12;;;;;;;0.60;0.10;;;20.10;1.00;;;;;;5032028;28;20934;-67
2022/06/25 06:17:41;;;;;;;0.60;0.10;;;20.00;1.00;;;;;;5036790;28;20446;-67
2022/06/25 06:20:09;;;;;;;0.60;0.10;;;19.80;1.00;;;;;;5044306;28;20471;-67
2022/06/25 06:22:37;;;;;;;0.60;0.10;;;19.80;1.00;;;;;;5033947;28;20465;-66
2022/06/25 06:25:07;;;;;;;0.60;0.10;;;19.90;1.00;;;;;;5032186;28;20501;-66
2022/06/25 06:27:35;;;;;;;0.60;0.20;;;19.90;1.00;;;;;;5034334;28;20462;-66
2022/06/25 06:30:05;;;;;;;0.60;0.20;;;19.90;1.00;;;;;;5033858;28;20575;-66
2022/06/25 06:32:33;;;;;;;0.60;0.10;;;19.90;1.00;;;;;;5033337;28;20449;-66
2022/06/25 06:35:01;;;;;;;0.60;0.10;;;19.90;1.00;;;;;;5032706;28;20443;-66
2022/06/25 06:37:29;;;;;;;0.60;0.10;;;19.80;1.00;;;;;;5033538;28;20893;-67
2022/06/25 06:39:57;;;;;;;0.60;0.20;;;19.90;1.00;;;;;;5049980;28;20832;-66
2022/06/25 06:42:26;;;;;;;1.70;1.50;;;19.90;1.00;;;;;;5033074;28;20485;-66
2022/06/25 06:44:54;;;;;;;0.60;0.10;;;20.00;1.00;;;;;;5016907;28;20480;-67
2022/06/25 06:47:22;;;;;;;0.60;0.10;;;20.00;1.00;;;;;;5050439;28;21058;-67
2022/06/25 06:49:50;;;;;;;0.60;0.10;;;20.10;1.00;;;;;;5035319;28;20466;-66
2022/06/25 06:52:17;;;;;;;0.60;0.10;;;20.20;1.00;;;;;;5052426;28;20454;-66
2022/06/25 06:54:45;;;;;;;0.60;0.13;;;20.20;1.00;;;;;;5051538;28;20980;-66
2022/06/25 06:57:14;;;;;;;0.60;0.10;;;20.30;1.00;;;;;;5051064;28;20462;-66
2022/06/25 06:59:44;;;;;;;0.60;0.10;;;20.40;1.00;;;;;;5032210;28;20505;-66
2022/06/25 07:02:12;;;;;;;0.60;0.20;;;20.60;1.00;;;;;;5032440;28;20439;-67
2022/06/25 07:04:40;;;;;;;0.60;0.30;;;20.60;1.00;;;;;;5050965;28;20534;-66
2022/06/25 07:07:07;;;;;;;0.60;0.10;;;20.60;1.00;;;;;;5051547;28;20477;-67
2022/06/25 07:09:35;;;;;;;0.60;0.30;;;20.60;1.00;;;;;;5032444;28;20447;-67
2022/06/25 07:12:04;;;;;;;0.70;0.40;;;20.60;1.00;;;;;;5033278;28;20807;-67
2022/06/25 07:14:32;;;;;;;1.43;1.33;;;;;;;;;;5031692;28;20451;-66
2022/06/25 07:17:01;;;;;;;0.87;0.73;;;20.40;1.00;;;;;;5031110;28;20450;-66
2022/06/25 07:19:29;;;;;;;0.90;0.20;;;20.30;1.00;;;;;;5050363;28;20451;-68
2022/06/25 07:21:57;;;;;;;0.60;0.10;;;20.40;1.00;;;;;;5034856;28;20482;-67
2022/06/25 07:24:26;;;;;;;0.60;0.10;;;20.40;1.00;;;;;;5050996;28;20446;-68
2022/06/25 07:26:53;;;;;;;0.83;0.30;;;20.50;1.00;;;;;;5041270;28;20478;-69
2022/06/25 07:29:22;;;;;;;0.70;0.20;;;;;;;;;;5027761;28;20570;-69
2022/06/25 07:31:50;;;;;;;0.60;0.20;;;20.70;1.00;;;;;;5031544;28;20591;-69
2022/06/25 07:34:19;;;;;;;0.60;0.10;;;20.80;1.00;;;;;;5044444;28;21197;-72
2022/06/25 07:36:47;;;;;;;0.60;0.10;;;20.80;1.00;;;;;;5031826;28;20444;-73
2022/06/25 07:39:16;;;;;;;0.60;0.20;;;20.90;1.00;;;;;;5029461;28;20444;-73
2022/06/25 07:41:44;;;;;;;0.60;0.10;;;24.20;1.00;;;;;;5033173;28;20534;-73
2022/06/25 07:44:13;;;;;;;0.60;0.10;;;;;;;;;;5032452;28;20451;-72
2022/06/25 07:46:41;;;;;;;0.60;0.20;;;20.90;1.00;;;;;;5032144;28;20471;-75
2022/06/25 07:49:10;;;;;;;0.60;0.10;;;21.00;1.00;;;;;;5051345;28;20537;-71
2022/06/25 07:51:56;;;;;;;0.60;0.10;;;21.00;1.00;;;;;;5051438;28;20502;-69
2022/06/25 07:54:25;;;;;;;0.60;0.20;;;21.30;1.00;;;;;;5047047;28;20851;-74
2022/06/25 07:56:53;;;;;;;0.60;0.10;;;21.40;1.00;;;;;;5032934;28;20961;-70
2022/06/25 07:59:22;;;;;;;0.60;0.17;;;21.50;1.00;;;;;;5050558;28;20968;-69
2022/06/25 08:01:50;;;;;;;0.60;0.20;;;21.60;1.00;;;;;;5050391;28;20446;-71
2022/06/25 08:04:18;;;;;;;0.60;0.20;;;21.60;1.00;;;;;;5034343;28;20458;-71
2022/06/25 08:06:48;;;;;;;1.13;0.93;;;21.50;1.00;;;;;;5031286;28;20483;-71
2022/06/25 08:09:15;;;;;;;0.70;0.20;;;21.30;1.00;;;;;;5050994;28;20472;-70
2022/06/25 08:11:43;;;;;;;0.60;0.10;;;21.30;1.00;;;;;;5051231;28;20453;-70
2022/06/25 08:14:11;;;;;;;1.53;1.40;;;21.30;1.00;;;;;;5028051;28;20459;-71
2022/06/25 08:16:39;;;;;;;0.60;0.10;;;21.30;1.00;;;;;;5031291;28;20883;-69
2022/06/25 08:19:07;;;;;;;0.60;0.20;;;21.30;1.00;;;;;;5024048;28;20488;-72
2022/06/25 08:21:35;;;;;;;0.60;0.20;;;21.50;1.00;;;;;;5032359;28;20471;-71
2022/06/25 08:24:05;;;;;;;0.60;0.10;;;21.50;1.00;;;;;;5035063;28;20474;-69
2022/06/25 08:26:33;;;;;;;0.60;0.10;;;21.50;1.00;;;;;;5028017;28;21013;-68
2022/06/25 08:29:01;;;;;;;0.60;0.20;;;21.50;1.00;;;;;;5036053;28;20451;-69
2022/06/25 08:31:29;;;;;;;0.70;0.20;;;21.70;1.00;;;;;;5048948;28;20470;-71
2022/06/25 08:33:58;;;;;;;0.60;0.10;;;21.80;1.00;;;;;;5050087;28;20447;-69
2022/06/25 08:36:26;;;;;;;0.60;0.10;;;22.20;1.00;;;;;;5051763;28;20455;-69
2022/06/25 08:38:53;;;;;;;0.60;0.17;;;22.20;1.00;;;;;;5054413;28;20534;-68
2022/06/25 08:41:23;;;;;;;0.60;0.20;;;22.30;1.00;;;;;;5052805;28;20478;-70
2022/06/25 08:43:52;;;;;;;0.70;0.20;;;22.40;1.00;;;;;;5053166;28;20450;-73
2022/06/25 08:46:20;;;;;;;0.67;0.10;;;22.50;1.00;;;;;;5053153;28;21014;-70
2022/06/25 08:48:50;;;;;;;0.70;0.13;;;22.60;1.00;;;;;;5054394;28;20455;-71
2022/06/25 08:51:21;;;;;;;0.70;0.10;;;22.70;1.00;;;;;;5053039;28;20476;-71
2022/06/25 08:53:49;;;;;;;0.70;0.10;;;23.00;1.00;;;;;;5035200;28;20461;-71
2022/06/25 08:56:19;;;;;;;0.70;0.10;;;23.10;1.00;;;;;;5033968;28;20553;-71
2022/06/25 08:58:48;;;;;;;0.70;0.10;;;23.30;1.00;;;;;;5043000;28;20446;-70
2022/06/25 09:01:15;;;;;;;0.70;0.10;;;23.40;1.00;;;;;;5040008;28;20494;-71
2022/06/25 09:03:44;;;;;;;0.70;0.10;;;23.60;1.00;;;;;;5033106;28;20459;-69
2022/06/25 09:06:14;;;;;;;0.70;0.10;;;23.70;1.00;;;;;;5043782;28;20474;-69
2022/06/25 09:08:43;;;;;;;0.70;0.20;;;23.80;1.00;;;;;;5039761;28;20464;-70
2022/06/25 09:11:11;;;;;;;2.23;1.13;;;23.80;1.00;;;;;;5035203;28;20474;-71
2022/06/25 09:13:39;;;;;;;0.70;0.10;;;23.90;1.00;;;;;;5040790;28;20535;-71
2022/06/25 09:16:24;;;;;;;0.70;0.10;;;23.90;1.00;;;;;;5040623;28;20453;-71
2022/06/25 09:18:52;;;;;;;0.70;0.10;;;23.70;99.90;;;;;;5052993;28;21157;-73
2022/06/25 09:21:20;;;;;;;0.70;0.10;;;23.60;99.90;;;;;;5053487;28;20489;-71
2022/06/25 09:23:58;;;;;;;0.70;0.10;;;23.40;1.00;;;;;;5040494;28;20458;-71
2022/06/25 09:26:26;;;;;;;0.70;0.30;;;23.40;1.00;;;;;;5033748;28;20475;-71
2022/06/25 09:28:59;;;;;;;0.70;0.20;;;23.20;1.00;;;;;;5047515;28;21185;-72
2022/06/25 09:31:36;;;;;;;0.70;0.10;;;23.30;1.00;;;;;;5040242;28;20483;-70
2022/06/25 09:34:05;;;;;;;0.70;0.10;;;23.40;1.00;;;;;;5032689;28;20506;-70
2022/06/25 09:36:33;;;;;;;0.70;0.10;;;23.40;1.00;;;;;;5033585;28;20440;-70
2022/06/25 09:39:01;;;;;;;0.70;0.10;;;23.50;1.00;;;;;;5031993;28;20447;-69
2022/06/25 09:41:48;;;;;;;0.70;0.10;;;23.80;1.00;;;;;;5033316;28;20460;-71
2022/06/25 09:44:18;;;;;;;0.70;0.10;;;23.70;99.90;;;;;;5034674;28;20470;-69
2022/06/25 09:46:58;;;;;;;0.70;0.10;;;23.50;99.90;;;;;;5030602;28;20905;-70
2022/06/25 09:49:27;;;;;;;1.43;1.33;;;23.50;99.90;;;;;;5038815;28;20455;-70
2022/06/25 09:52:02;;;;;;;0.70;0.10;;;23.50;1.00;;;;;;5031704;28;20444;-69
2022/06/25 09:54:30;;;;;;;0.73;0.40;;;23.50;1.00;;;;;;5048913;28;20936;-69
2022/06/25 09:56:59;;;;;;;0.70;0.20;;;23.50;1.00;;;;;;5049494;28;20457;-72
2022/06/25 09:59:31;;;;;;;0.70;0.10;;;23.60;1.00;;;;;;5037511;28;20523;-69
2022/06/25 10:02:04;;;;;;;0.70;0.10;;;23.80;99.90;;;;;;5040740;28;20455;-66
2022/06/25 10:04:32;;;;;;;0.70;0.20;;;23.80;99.90;;;;;;5038508;28;20466;-67
2022/06/25 10:07:05;;;;;;;1.63;0.87;;;23.90;99.90;;;;;;5042996;28;20482;-68
2022/06/25 10:09:35;;;;;;;0.80;0.33;;;23.70;99.90;;;;;;5053046;28;20489;-68
2022/06/25 10:12:05;;;;;;;0.70;0.20;;;23.70;99.90;;;;;;5051150;28;20454;-67
2022/06/25 10:14:34;;;;;;;1.00;0.67;;;23.60;99.90;;;;;;5052018;28;20529;-68
2022/06/25 10:17:04;;;;;;;0.70;0.20;;;23.60;99.90;;;;;;5029760;28;20546;-69
2022/06/25 10:19:33;;;;;;;0.70;0.20;;;23.60;99.90;;;;;;5031299;28;20482;-69
2022/06/25 10:22:01;;;;;;;0.70;0.10;;;23.80;99.90;;;;;;5042187;28;20877;-67
2022/06/25 10:24:30;;;;;;;0.70;0.10;;;24.00;99.90;;;;;;5031893;28;20478;-70
2022/06/25 10:26:58;;;;;;;1.90;1.13;;;24.00;99.90;;;;;;5029987;28;20487;-70
2022/06/25 10:29:26;;;;;;;0.70;0.20;;;24.10;99.90;;;;;;5026404;28;20946;-67
2022/06/25 10:32:15;;;;;;;0.70;0.10;;;24.10;99.90;;;;;;5030780;28;20928;-68
2022/06/25 10:34:56;;;;;;;0.70;0.20;;;24.20;99.90;;;;;;5029051;28;20464;-68
2022/06/25 10:37:25;;;;;;;0.70;0.10;;;24.50;99.90;;;;;;5038561;28;20450;-68
2022/06/25 10:39:54;;;;;;;0.70;0.13;;;24.60;99.90;;;;;;5051230;28;20836;-67
2022/06/25 10:45:55;;;;;;;0.70;0.10;;;24.70;99.90;;;;;;5050547;28;20454;-67
2022/06/25 10:48:25;;;;;;;1.07;0.77;;;;;;;;;;5037109;28;20471;-69
2022/06/25 10:50:55;;;;;;;3.93;2.40;;;24.60;99.90;;;;;;5032118;28;20570;-67
2022/06/25 10:53:25;;;;;;;0.70;0.20;;;24.60;99.90;;;;;;5032139;28;20470;-68
2022/06/25 10:56:17;;;;;;;0.70;0.20;;;24.70;99.90;;;;;;5030116;28;20539;-66
2022/06/25 10:58:50;;;;;;;0.70;0.10;;;25.10;99.90;;;;;;5005580;28;20442;-70
2022/06/25 11:01:33;;;;;;;0.70;0.20;;;25.20;99.90;;;;;;5031854;28;20471;-67
2022/06/25 11:04:06;;;;;;;0.70;0.10;;;25.20;99.90;;;;;;5031835;28;20992;-68
2022/06/25 11:06:37;;;;;;;0.70;0.20;;;25.00;99.90;;;;;;5029900;28;20451;-70
2022/06/25 11:09:10;;;;;;;0.70;0.10;;;24.90;99.90;;;;;;5027144;28;20478;-67
2022/06/25 11:11:40;;;;;;;0.70;0.10;;;24.90;99.90;;;;;;5031798;28;20470;-66
2022/06/25 11:14:21;;;;;;;0.70;0.20;;;24.90;99.90;;;;;;5031025;28;20656;-69
2022/06/25 11:16:50;;;;;;;0.70;0.10;;;24.90;99.90;;;;;;5030490;28;20467;-64
2022/06/25 11:19:19;;;;;;;0.70;0.20;;;;;;;;;;5030047;28;20447;-65
2022/06/25 11:21:48;;;;;;;0.80;0.30;;;27.50;99.90;;;;;;5030659;28;20440;-68
2022/06/25 11:24:18;;;;;;;0.70;0.20;;;25.20;99.90;;;;;;5030942;28;20466;-70
2022/06/25 11:29:46;;;;;;;0.70;0.20;;;25.40;99.90;;;;;;5010693;28;20529;-65
2022/06/25 11:32:14;;;;;;;0.70;0.10;;;;;;;;;;5028590;28;20961;-67
2022/06/25 11:34:44;;;;;;;1.47;0.77;;;25.50;99.90;;;;;;5034232;28;20447;-66
2022/06/25 11:37:13;;;;;;;0.70;0.10;;;25.50;99.90;;;;;;5032363;28;20458;-65
2022/06/25 11:39:41;;;;;;;0.70;0.20;;;25.60;99.90;;;;;;5027018;28;20474;-64
2022/06/25 11:42:11;;;;;;;1.03;0.50;;;25.80;99.90;;;;;;5031490;28;20447;-66
2022/06/25 11:44:40;;;;;;;0.70;0.20;;;25.80;99.90;;;;;;5027628;28;20510;-67
2022/06/25 11:47:11;;;;;;;0.70;0.13;;;;;;;;;;5031508;28;20458;-65
2022/06/25 11:49:43;;;;;;;0.70;0.10;;;26.00;99.90;;;;;;5042330;28;20498;-67
2022/06/25 11:52:13;;;;;;;0.70;0.20;;;26.30;99.90;;;;;;5029601;28;20816;-66
2022/06/25 11:54:42;;;;;;;1.90;1.80;;;26.30;99.90;;;;;;5044369;28;20868;-71
2022/06/25 11:57:16;;;;;;;0.70;0.10;;;26.60;99.90;;;;;;5043515;28;20466;-67
2022/06/25 11:59:44;;;;;;;0.70;0.20;;;26.60;99.90;;;;;;5038717;28;20478;-69
2022/06/25 12:02:12;;;;;;;0.70;0.30;;;;;;;;;;5029700;28;20447;-67
2022/06/25 12:04:51;;;;;;;0.70;0.10;;;26.70;99.90;;;;;;5031456;28;20451;-67
2022/06/25 12:07:23;;;;;;;0.70;0.20;;;26.70;99.90;;;;;;5040185;28;20830;-67
2022/06/25 12:09:52;;;;;;;0.70;0.20;;;26.70;99.90;;;;;;5038676;28;20462;-66
2022/06/25 12:12:21;;;;;;;0.90;0.30;;;26.90;99.90;;;;;;5034470;28;20942;-68
2022/06/25 12:14:50;;;;;;;0.70;0.10;;;26.90;99.90;;;;;;5032414;28;20462;-67
2022/06/25 12:17:18;;;;;;;0.80;0.20;;;26.90;99.90;;;;;;5032956;28;20463;-72
2022/06/25 12:19:48;;;;;;;0.70;0.10;;;26.90;99.90;;;;;;5032279;28;20451;-68
2022/06/25 12:22:22;;;;;;;0.80;0.20;;;26.90;99.90;;;;;;5039608;28;20460;-71
2022/06/25 12:24:51;;;;;;;0.70;0.10;;;26.80;99.90;;;;;;5031815;28;20451;-73
2022/06/25 12:27:19;;;;;;;0.90;0.30;;;26.70;99.90;;;;;;5031605;28;20459;-67
2022/06/25 12:29:49;;;;;;;0.70;0.10;;;26.50;99.90;;;;;;5031298;28;20675;-69
2022/06/25 12:32:17;;;;;;;0.70;0.10;;;26.40;99.90;;;;;;5032841;28;20542;-68
2022/06/25 12:34:47;;;;;;;0.70;0.10;;;26.20;99.90;;;;;;5032645;28;20523;-68
2022/06/25 12:37:28;;;;;;;0.70;0.20;;;26.10;99.90;;;;;;5042840;28;20462;-67
2022/06/25 12:39:58;;;;;;;0.70;0.10;;;26.30;99.90;;;;;;5033674;28;20533;-66
2022/06/25 12:42:28;;;;;;;0.70;0.10;;;26.50;99.90;;;;;;5034142;28;20890;-67
2022/06/25 12:44:57;;;;;;;0.70;0.20;;;26.40;99.90;;;;;;5032376;28;20455;-67
2022/06/25 12:47:25;;;;;;;0.70;0.10;;;26.50;99.90;;;;;;5027795;28;20946;-66
2022/06/25 12:49:54;;;;;;;0.70;0.20;;;26.50;99.90;;;;;;5032144;28;20570;-66
2022/06/25 12:52:26;;;;;;;0.70;0.20;;;26.50;99.90;;;;;;5031443;28;20755;-66
2022/06/25 12:54:57;;;;;;;0.70;0.10;;;26.60;99.90;;;;;;5031109;28;20443;-65
2022/06/25 12:57:27;;;;;;;0.70;0.30;;;26.70;99.90;;;;;;5031736;28;20455;-66
2022/06/25 12:59:57;;;;;;;0.70;0.10;;;26.80;99.90;;;;;;4997695;28;1055084;-65
2022/06/25 13:02:33;;;;;;;0.70;0.10;;;26.90;99.90;;;;;;5030576;28;20239;-67
2022/06/25 13:05:02;;;;;;;0.70;0.10;;;27.10;99.90;;;;;;5031600;28;20447;-67
2022/06/25 13:07:30;;;;;;;0.70;0.10;;;27.30;99.90;;;;;;5035519;28;20463;-66
2022/06/25 13:10:00;;;;;;;0.70;0.20;;;27.10;99.90;;;;;;5036687;28;20681;-65
2022/06/25 13:12:30;;;;;;;0.70;0.20;;;27.10;99.90;;;;;;5050153;28;20521;-66
2022/06/25 13:15:01;;;;;;;1.33;0.50;;;27.20;99.90;;;;;;5045480;28;20501;-65
2022/06/25 13:17:29;;;;;;;0.70;0.20;;;27.30;99.90;;;;;;5039712;28;20812;-67
2022/06/25 13:19:57;;;;;;;0.70;0.10;;;;;;;;;;5027542;28;20509;-65
2022/06/25 13:22:25;;;;;;;0.70;0.20;;;27.40;99.90;;;;;;5036827;28;20748;-66
2022/06/25 13:24:53;;;;;;;0.70;0.20;;;27.50;99.90;;;;;;5036811;28;20447;-68
2022/06/25 13:27:22;;;;;;;0.70;0.13;;;27.70;99.90;;;;;;5032271;28;20489;-67